| time (UTC) | temp C | wind direction | speed KPH | gust KPH | rain 1hr cm | rain 24hr cm | rain mn cm | humidity % | barometer mb |
| 20260508122703 | 15 | 217 | 3.2 | 8.0 | 0.00 | 0.00 | 0.00 | 79 | 1016.7 |
| 20260508121803 | 16 | 203 | 4.8 | 9.7 | 0.00 | 0.00 | 0.00 | 79 | 1016.8 |
| 20260508120903 | 16 | 212 | 4.8 | 11.3 | 0.00 | 0.00 | 0.00 | 78 | 1016.8 |
| 20260508120003 | 16 | 241 | 4.8 | 9.7 | 0.00 | 0.00 | 0.00 | 79 | 1016.8 |
| 20260508115403 | 16 | 216 | 4.8 | 9.7 | 0.00 | 0.00 | 0.00 | 78 | 1016.8 |
| 20260508114524 | 16 | 219 | 4.8 | 9.7 | 0.00 | 0.00 | 0.00 | 78 | 1016.7 |
| 20260508113603 | 16 | 217 | 4.8 | 8.0 | 0.00 | 0.00 | 0.00 | 78 | 1016.6 |
| 20260508112703 | 16 | 225 | 6.4 | 11.3 | 0.00 | 0.00 | 0.00 | 78 | 1016.6 |
| 20260508111803 | 17 | 214 | 4.8 | 9.7 | 0.00 | 0.00 | 0.00 | 78 | 1016.5 |
| 20260508110903 | 16 | 218 | 4.8 | 8.0 | 0.00 | 0.00 | 0.00 | 78 | 1016.4 |
| 20260508110003 | 16 | 221 | 3.2 | 8.0 | 0.00 | 0.00 | 0.00 | 78 | 1016.4 |
| 20260508105403 | 15 | 216 | 4.8 | 11.3 | 0.00 | 0.00 | 0.00 | 78 | 1016.4 |
| 20260508104503 | 16 | 228 | 4.8 | 11.3 | 0.00 | 0.00 | 0.00 | 78 | 1016.5 |
| 20260508103603 | 16 | 222 | 3.2 | 6.4 | 0.00 | 0.00 | 0.00 | 77 | 1016.5 |
| 20260508102703 | 16 | 221 | 4.8 | 9.7 | 0.00 | 0.00 | 0.00 | 77 | 1016.6 |
| 20260508101803 | 17 | 215 | 4.8 | 9.7 | 0.00 | 0.00 | 0.00 | 75 | 1016.6 |
| 20260508100903 | 16 | 215 | 4.8 | 12.9 | 0.00 | 0.00 | 0.00 | 76 | 1016.5 |
| 20260508100024 | 16 | 188 | 4.8 | 12.9 | 0.00 | 0.00 | 0.00 | 76 | 1016.6 |
| 20260508095403 | 16 | 163 | 1.6 | 9.7 | 0.00 | 0.00 | 0.00 | 76 | 1016.5 |
| 20260508094503 | 15 | 189 | 3.2 | 9.7 | 0.00 | 0.00 | 0.00 | 76 | 1016.5 |
| 20260508093603 | 15 | 195 | 4.8 | 12.9 | 0.00 | 0.00 | 0.00 | 76 | 1016.5 |
| 20260508092703 | 15 | 108 | 3.2 | 8.0 | 0.00 | 0.00 | 0.00 | 75 | 1016.4 |
| 20260508091824 | 15 | 22 | 0.0 | 4.8 | 0.00 | 0.00 | 0.00 | 75 | 1016.5 |
| 20260508090903 | 15 | 35 | 3.2 | 9.7 | 0.00 | 0.00 | 0.00 | 73 | 1016.4 |
| 20260508090003 | 14 | 41 | 3.2 | 8.0 | 0.00 | 0.00 | 0.00 | 75 | 1016.4 |
| 20260508085403 | 13 | 42 | 1.6 | 6.4 | 0.00 | 0.00 | 0.00 | 76 | 1016.4 |
| 20260508084503 | 13 | 48 | 1.6 | 4.8 | 0.00 | 0.00 | 0.00 | 75 | 1016.3 |
| 20260508083603 | 13 | 57 | 3.2 | 8.0 | 0.00 | 0.00 | 0.00 | 75 | 1016.3 |
| 20260508082703 | 13 | 51 | 3.2 | 8.0 | 0.00 | 0.00 | 0.00 | 75 | 1016.1 |
| 20260508081824 | 13 | 66 | 3.2 | 6.4 | 0.00 | 0.00 | 0.00 | 74 | 1016.1 |
| 20260508080903 | 13 | 99 | 4.8 | 9.7 | 0.00 | 0.00 | 0.00 | 70 | 1016.1 |
| 20260508080003 | 13 | 86 | 4.8 | 11.3 | 0.00 | 0.00 | 0.00 | 73 | 1016.2 |
| 20260508075424 | 13 | 61 | 4.8 | 11.3 | 0.00 | 0.00 | 0.00 | 73 | 1016.2 |
| 20260508074503 | 12 | 78 | 3.2 | 8.0 | 0.00 | 0.00 | 0.00 | 73 | 1016.2 |
| 20260508073624 | 11 | 74 | 1.6 | 6.4 | 0.00 | 0.00 | 0.00 | 74 | 1016.1 |
| 20260508072703 | 11 | 80 | 4.8 | 12.9 | 0.00 | 0.00 | 0.00 | 74 | 1016.1 |
| 20260508071824 | 11 | 89 | 4.8 | 12.9 | 0.00 | 0.00 | 0.00 | 74 | 1016.0 |
| 20260508070903 | 11 | 59 | 1.6 | 6.4 | 0.00 | 0.00 | 0.00 | 74 | 1015.9 |
| 20260508070003 | 10 | 63 | 1.6 | 6.4 | 0.00 | 0.00 | 0.00 | 75 | 1015.9 |
| 20260508065403 | 10 | 55 | 3.2 | 6.4 | 0.00 | 0.00 | 0.00 | 75 | 1015.9 |
| 20260508064503 | 10 | 75 | 3.2 | 6.4 | 0.00 | 0.00 | 0.00 | 75 | 1015.9 |
| 20260508063603 | 9 | 51 | 1.6 | 4.8 | 0.00 | 0.00 | 0.00 | 76 | 1015.8 |
| 20260508062724 | 8 | 51 | 0.0 | 3.2 | 0.00 | 0.00 | 0.00 | 76 | 1015.6 |
| 20260508061803 | 8 | 0 | 0.0 | 0.0 | 0.00 | 0.00 | 0.00 | 73 | 1015.6 |
| 20260508060903 | 8 | 51 | 0.0 | 1.6 | 0.00 | 0.00 | 0.00 | 76 | 1015.5 |
| 20260508060024 | 8 | 51 | 0.0 | 3.2 | 0.00 | 0.00 | 0.00 | 76 | 1015.5 |
| 20260508055403 | 8 | 51 | 0.0 | 3.2 | 0.00 | 0.00 | 0.00 | 76 | 1015.5 |
| 20260508054524 | 8 | 51 | 0.0 | 1.6 | 0.00 | 0.00 | 0.00 | 76 | 1015.5 |
| 20260508053624 | 8 | 51 | 0.0 | 1.6 | 0.00 | 0.00 | 0.00 | 76 | 1015.3 |
| 20260508052703 | 8 | 51 | 0.0 | 3.2 | 0.00 | 0.00 | 0.00 | 77 | 1015.2 |
| 20260508051803 | 8 | 51 | 0.0 | 4.8 | 0.00 | 0.00 | 0.00 | 77 | 1015.2 |
| 20260508050903 | 8 | 51 | 0.0 | 4.8 | 0.00 | 0.00 | 0.00 | 77 | 1015.1 |
| 20260508050003 | 8 | 51 | 1.6 | 4.8 | 0.00 | 0.00 | 0.00 | 77 | 1015.0 |
| 20260508045403 | 8 | 52 | 1.6 | 4.8 | 0.00 | 0.00 | 0.00 | 78 | 1015.0 |
| 20260508044503 | 8 | 76 | 1.6 | 4.8 | 0.00 | 0.00 | 0.00 | 78 | 1015.0 |
| 20260508043603 | 8 | 92 | 1.6 | 3.2 | 0.00 | 0.00 | 0.00 | 78 | 1015.0 |
| 20260508042703 | 8 | 92 | 1.6 | 3.2 | 0.00 | 0.00 | 0.00 | 78 | 1015.0 |
| 20260508041824 | 8 | 92 | 1.6 | 9.7 | 0.00 | 0.00 | 0.00 | 78 | 1015.1 |
| 20260508040903 | 8 | 93 | 1.6 | 4.8 | 0.00 | 0.00 | 0.00 | 78 | 1014.9 |
| 20260508040004 | 8 | 94 | 0.0 | 3.2 | 0.00 | 0.00 | 0.00 | 79 | 1014.9 |
| 20260508035403 | 8 | 94 | 1.6 | 3.2 | 0.00 | 0.00 | 0.00 | 79 | 1014.8 |
| 20260508034504 | 9 | 94 | 1.6 | 3.2 | 0.00 | 0.00 | 0.00 | 80 | 1014.8 |
| 20260508033603 | 9 | 94 | 1.6 | 4.8 | 0.00 | 0.00 | 0.00 | 80 | 1014.8 |
| 20260508032703 | 9 | 93 | 3.2 | 6.4 | 0.00 | 0.00 | 0.00 | 80 | 1014.8 |
| 20260508031803 | 9 | 91 | 1.6 | 6.4 | 0.00 | 0.00 | 0.00 | 80 | 1014.9 |
| 20260508030903 | 9 | 89 | 3.2 | 9.7 | 0.00 | 0.00 | 0.00 | 80 | 1014.8 |
| 20260508030003 | 9 | 112 | 3.2 | 6.4 | 0.00 | 0.00 | 0.00 | 80 | 1014.9 |
| 20260508025403 | 9 | 131 | 3.2 | 6.4 | 0.00 | 0.00 | 0.00 | 80 | 1014.9 |
| 20260508024503 | 10 | 134 | 1.6 | 6.4 | 0.00 | 0.00 | 0.00 | 80 | 1014.9 |
| 20260508023603 | 10 | 135 | 1.6 | 4.8 | 0.00 | 0.00 | 0.00 | 80 | 1014.9 |
| 20260508022703 | 10 | 136 | 1.6 | 4.8 | 0.00 | 0.00 | 0.00 | 80 | 1015.0 |
| 20260508021803 | 10 | 0 | 0.0 | 0.0 | 0.00 | 0.00 | 0.00 | 77 | 1014.8 |
| 20260508020903 | 10 | 137 | 0.0 | 3.2 | 0.00 | 0.00 | 0.00 | 80 | 1014.7 |
| 20260508020003 | 10 | 137 | 1.6 | 4.8 | 0.00 | 0.00 | 0.00 | 80 | 1014.8 |
| 20260508015403 | 10 | 137 | 1.6 | 4.8 | 0.00 | 0.00 | 0.00 | 80 | 1014.8 |
| 20260508014503 | 10 | 168 | 3.2 | 9.7 | 0.00 | 0.00 | 0.00 | 80 | 1014.7 |
| 20260508013603 | 10 | 155 | 3.2 | 8.0 | 0.00 | 0.00 | 0.00 | 80 | 1014.8 |
| 20260508012703 | 10 | 160 | 4.8 | 9.7 | 0.00 | 0.00 | 0.00 | 80 | 1014.7 |
| 20260508011803 | 10 | 141 | 1.6 | 6.4 | 0.00 | 0.00 | 0.00 | 79 | 1014.6 |
| 20260508010903 | 10 | 139 | 0.0 | 3.2 | 0.00 | 0.00 | 0.00 | 80 | 1014.7 |
| 20260508010024 | 10 | 0 | 0.0 | 0.0 | 0.00 | 0.00 | 0.00 | 80 | 1014.5 |
| 20260508005403 | 10 | 139 | 0.0 | 1.6 | 0.00 | 0.00 | 0.00 | 80 | 1014.5 |
| 20260508004503 | 10 | 148 | 3.2 | 11.3 | 0.00 | 0.00 | 0.00 | 80 | 1014.6 |
| 20260508003603 | 10 | 131 | 4.8 | 14.5 | 0.00 | 0.00 | 0.00 | 81 | 1014.6 |
| 20260508002703 | 10 | 95 | 3.2 | 6.4 | 0.00 | 0.00 | 0.00 | 81 | 1014.5 |
| 20260508001803 | 10 | 97 | 3.2 | 6.4 | 0.00 | 0.00 | 0.00 | 81 | 1014.7 |
| 20260508000903 | 10 | 101 | 3.2 | 6.4 | 0.00 | 0.00 | 0.00 | 79 | 1014.7 |
| 20260508000003 | 10 | 99 | 3.2 | 6.4 | 0.00 | 0.00 | 0.00 | 82 | 1014.8 |
| 20260507235403 | 10 | 99 | 3.2 | 6.4 | 0.00 | 0.00 | 0.00 | 82 | 1014.7 |
| 20260507234503 | 10 | 99 | 3.2 | 6.4 | 0.00 | 0.00 | 0.00 | 82 | 1014.8 |
| 20260507233603 | 10 | 98 | 3.2 | 6.4 | 0.00 | 0.00 | 0.00 | 83 | 1014.7 |
| 20260507232703 | 10 | 97 | 3.2 | 6.4 | 0.00 | 0.00 | 0.00 | 83 | 1014.7 |
| 20260507231803 | 10 | 98 | 3.2 | 6.4 | 0.00 | 0.00 | 0.00 | 84 | 1014.7 |
| 20260507230903 | 10 | 97 | 3.2 | 9.7 | 0.00 | 0.00 | 0.00 | 84 | 1014.7 |
| 20260507230004 | 10 | 95 | 3.2 | 9.7 | 0.00 | 0.00 | 0.00 | 84 | 1014.6 |
| 20260507225403 | 10 | 91 | 3.2 | 9.7 | 0.00 | 0.00 | 0.00 | 85 | 1014.6 |
| 20260507224504 | 10 | 89 | 3.2 | 6.4 | 0.00 | 0.00 | 0.00 | 85 | 1014.5 |
| 20260507223603 | 10 | 85 | 3.2 | 9.7 | 0.00 | 0.00 | 0.00 | 85 | 1014.4 |
| 20260507222703 | 10 | 84 | 3.2 | 6.4 | 0.00 | 0.00 | 0.00 | 85 | 1014.5 |
| 20260507221803 | 11 | 82 | 3.2 | 6.4 | 0.00 | 0.00 | 0.00 | 81 | 1014.4 |
| 20260507220903 | 10 | 84 | 3.2 | 6.4 | 0.00 | 0.00 | 0.00 | 85 | 1014.5 |
| 20260507220003 | 10 | 84 | 1.6 | 4.8 | 0.00 | 0.00 | 0.00 | 85 | 1014.5 |
| 20260507215403 | 10 | 84 | 1.6 | 4.8 | 0.00 | 0.00 | 0.00 | 85 | 1014.5 |
| 20260507214524 | 11 | 84 | 1.6 | 4.8 | 0.00 | 0.00 | 0.00 | 84 | 1014.4 |
| 20260507213603 | 11 | 84 | 3.2 | 9.7 | 0.00 | 0.00 | 0.00 | 85 | 1014.4 |
| 20260507212703 | 11 | 83 | 3.2 | 6.4 | 0.00 | 0.00 | 0.00 | 84 | 1014.5 |
| 20260507211824 | 11 | 84 | 1.6 | 4.8 | 0.00 | 0.00 | 0.00 | 83 | 1014.4 |
| 20260507210903 | 11 | 89 | 3.2 | 6.4 | 0.00 | 0.00 | 0.00 | 84 | 1014.3 |
| 20260507210003 | 11 | 97 | 3.2 | 6.4 | 0.00 | 0.00 | 0.00 | 85 | 1014.4 |
| 20260507205403 | 11 | 109 | 1.6 | 6.4 | 0.00 | 0.00 | 0.00 | 85 | 1014.3 |
| 20260507204503 | 12 | 134 | 3.2 | 6.4 | 0.00 | 0.00 | 0.00 | 85 | 1014.3 |
| 20260507203603 | 12 | 146 | 4.8 | 11.3 | 0.00 | 0.00 | 0.00 | 86 | 1014.2 |
| 20260507202703 | 12 | 142 | 6.4 | 16.1 | 0.00 | 0.00 | 0.00 | 86 | 1014.2 |
| 20260507201803 | 12 | 161 | 6.4 | 11.3 | 0.00 | 0.00 | 0.00 | 86 | 1014.1 |
| 20260507200924 | 12 | 154 | 6.4 | 12.9 | 0.00 | 0.00 | 0.00 | 86 | 1013.9 |
| 20260507200003 | 12 | 145 | 8.0 | 14.5 | 0.00 | 0.00 | 0.00 | 86 | 1013.9 |
| 20260507195403 | 12 | 146 | 6.4 | 14.5 | 0.00 | 0.00 | 0.00 | 86 | 1013.8 |
| 20260507194503 | 12 | 140 | 4.8 | 11.3 | 0.00 | 0.00 | 0.00 | 86 | 1013.7 |
| 20260507193603 | 12 | 132 | 6.4 | 12.9 | 0.00 | 0.00 | 0.00 | 86 | 1013.5 |
| 20260507192703 | 12 | 152 | 4.8 | 11.3 | 0.00 | 0.00 | 0.00 | 86 | 1013.6 |
| 20260507191803 | 12 | 133 | 6.4 | 16.1 | 0.00 | 0.00 | 0.00 | 86 | 1013.6 |
| 20260507190903 | 12 | 128 | 6.4 | 12.9 | 0.00 | 0.00 | 0.00 | 85 | 1013.6 |
| 20260507190024 | 12 | 108 | 4.8 | 11.3 | 0.00 | 0.00 | 0.00 | 86 | 1013.6 |
| 20260507185403 | 12 | 92 | 4.8 | 14.5 | 0.00 | 0.00 | 0.00 | 87 | 1013.5 |
| 20260507184503 | 12 | 92 | 4.8 | 12.9 | 0.00 | 0.00 | 0.00 | 86 | 1013.5 |
| 20260507183603 | 12 | 89 | 6.4 | 12.9 | 0.00 | 0.00 | 0.00 | 86 | 1013.5 |
| 20260507182703 | 12 | 106 | 4.8 | 12.9 | 0.00 | 0.00 | 0.00 | 86 | 1013.6 |
| 20260507181803 | 13 | 87 | 3.2 | 9.7 | 0.00 | 0.00 | 0.00 | 80 | 1013.5 |
| 20260507180903 | 12 | 132 | 3.2 | 11.3 | 0.00 | 0.00 | 0.00 | 86 | 1013.4 |
| 20260507180003 | 12 | 173 | 3.2 | 8.0 | 0.00 | 0.00 | 0.00 | 87 | 1013.3 |
| 20260507175403 | 12 | 175 | 3.2 | 8.0 | 0.00 | 0.00 | 0.00 | 87 | 1013.4 |
| 20260507174503 | 12 | 147 | 3.2 | 11.3 | 0.00 | 0.00 | 0.00 | 87 | 1013.4 |
| 20260507173603 | 13 | 163 | 6.4 | 11.3 | 0.00 | 0.00 | 0.00 | 88 | 1013.4 |
| 20260507172703 | 13 | 175 | 6.4 | 14.5 | 0.00 | 0.00 | 0.00 | 87 | 1013.4 |
| 20260507171803 | 13 | 176 | 6.4 | 20.9 | 0.00 | 0.00 | 0.00 | 85 | 1013.4 |
| 20260507170903 | 13 | 159 | 8.0 | 14.5 | 0.00 | 0.00 | 0.00 | 90 | 1013.4 |
| 20260507170003 | 14 | 136 | 8.0 | 19.3 | 0.00 | 0.00 | 0.00 | 89 | 1013.4 |
| 20260507165403 | 14 | 124 | 8.0 | 19.3 | 0.00 | 0.00 | 0.00 | 88 | 1013.4 |
| 20260507164503 | 14 | 120 | 9.7 | 20.9 | 0.00 | 0.00 | 0.00 | 88 | 1013.4 |
| 20260507163603 | 14 | 124 | 11.3 | 20.9 | 0.00 | 0.00 | 0.00 | 88 | 1013.3 |
| 20260507162703 | 14 | 97 | 4.8 | 16.1 | 0.00 | 0.00 | 0.00 | 89 | 1013.3 |
| 20260507161803 | 14 | 98 | 6.4 | 17.7 | 0.00 | 0.00 | 0.00 | 89 | 1013.3 |
| 20260507160903 | 14 | 92 | 6.4 | 14.5 | 0.00 | 0.00 | 0.00 | 86 | 1013.3 |
| 20260507160003 | 14 | 94 | 4.8 | 12.9 | 0.00 | 0.00 | 0.00 | 89 | 1013.4 |
| 20260507155403 | 14 | 94 | 4.8 | 14.5 | 0.00 | 0.00 | 0.00 | 89 | 1013.4 |
| 20260507154503 | 14 | 103 | 8.0 | 16.1 | 0.00 | 0.00 | 0.00 | 89 | 1013.5 |
| 20260507153603 | 14 | 121 | 4.8 | 12.9 | 0.00 | 0.00 | 0.00 | 90 | 1013.4 |
| 20260507152703 | 14 | 99 | 4.8 | 16.1 | 0.00 | 0.00 | 0.00 | 87 | 1013.4 |
| 20260507151803 | 15 | 94 | 8.0 | 17.7 | 0.00 | 0.00 | 0.00 | 83 | 1013.5 |
| 20260507150903 | 15 | 120 | 6.4 | 12.9 | 0.00 | 0.00 | 0.00 | 82 | 1013.6 |
| 20260507150003 | 15 | 136 | 6.4 | 12.9 | 0.00 | 0.00 | 0.00 | 83 | 1013.7 |
| 20260507145403 | 15 | 121 | 6.4 | 12.9 | 0.00 | 0.00 | 0.00 | 83 | 1013.8 |
| 20260507144503 | 15 | 87 | 6.4 | 17.7 | 0.00 | 0.00 | 0.00 | 82 | 1013.8 |
| 20260507143624 | 15 | 99 | 8.0 | 17.7 | 0.00 | 0.00 | 0.00 | 82 | 1013.9 |
| 20260507142703 | 14 | 107 | 8.0 | 20.9 | 0.00 | 0.00 | 0.00 | 82 | 1014.0 |
| 20260507141803 | 15 | 92 | 8.0 | 20.9 | 0.00 | 0.00 | 0.00 | 81 | 1014.0 |
| 20260507140903 | 15 | 103 | 8.0 | 16.1 | 0.00 | 0.00 | 0.00 | 80 | 1014.1 |
| 20260507140024 | 14 | 99 | 8.0 | 16.1 | 0.00 | 0.00 | 0.00 | 80 | 1014.2 |
| 20260507135403 | 13 | 96 | 8.0 | 19.3 | 0.00 | 0.00 | 0.00 | 80 | 1014.2 |
| 20260507134503 | 13 | 103 | 9.7 | 20.9 | 0.00 | 0.00 | 0.00 | 80 | 1014.3 |
| 20260507133603 | 13 | 102 | 8.0 | 22.5 | 0.00 | 0.00 | 0.00 | 79 | 1014.3 |
| 20260507132724 | 13 | 102 | 8.0 | 20.9 | 0.00 | 0.00 | 0.00 | 80 | 1014.4 |
| 20260507131803 | 13 | 103 | 9.7 | 20.9 | 0.00 | 0.00 | 0.00 | 80 | 1014.5 |
| 20260507130903 | 13 | 109 | 11.3 | 22.5 | 0.00 | 0.00 | 0.00 | 80 | 1014.4 |
| 20260507130003 | 12 | 104 | 8.0 | 20.9 | 0.00 | 0.00 | 0.00 | 80 | 1014.4 |
| 20260507125403 | 12 | 100 | 11.3 | 22.5 | 0.00 | 0.00 | 0.00 | 80 | 1014.5 |
| 20260507124503 | 12 | 104 | 11.3 | 22.5 | 0.00 | 0.00 | 0.00 | 80 | 1014.5 |
| 20260507123603 | 11 | 100 | 9.7 | 20.9 | 0.00 | 0.00 | 0.00 | 80 | 1014.6 |